Nelsonville, New York
Current Conditions -  °F | °C
As of 3:45 AM on Monday 24 Nov 2014 (Local Time) from KSWF Reporting Station
Moderate Rain Moderate Rain  
Wind Chill: 54°   Ceiling: 1000
Heat Index: 54°   Visibility: 2mi
Dew Point: 54°   Wind: 12mph
Humidity: 100%   Direction: 110°ESE
Pressure: 29.74"   Gusts: NA
Location:  41.4593°N, 73.8985°W
Report Text: KSWF 240845Z 11010KT 2SM RA BR OVC010 12/12 A2974
Loading
Personal Weather Stations






























Interactive Weather Map New forecast layout! Learn more

10-Day Weather Forecast

Advertisements
Track Severe Weather on mobile